createdAt,value
2019-05-16T00:01:45.424Z,2.55
2019-05-16T00:04:11.693Z,3.22
2019-05-16T00:06:39.056Z,2.33
2019-05-16T00:09:07.878Z,2.90
2019-05-16T00:11:33.947Z,2.40
2019-05-16T00:14:00.388Z,5.30
2019-05-16T00:16:28.700Z,2.62
2019-05-16T00:18:55.039Z,3.05
2019-05-16T00:21:21.331Z,2.95
2019-05-16T00:23:48.556Z,4.08
2019-05-16T00:26:15.101Z,2.33
2019-05-16T00:28:41.452Z,3.20
2019-05-16T00:31:08.609Z,2.80
2019-05-16T00:33:35.094Z,2.42
2019-05-16T00:36:05.671Z,2.65
2019-05-16T00:38:29.648Z,3.52
2019-05-16T00:40:55.889Z,4.25
2019-05-16T00:43:22.230Z,4.08
2019-05-16T00:45:48.788Z,3.42
2019-05-16T00:48:15.203Z,3.47
2019-05-16T00:50:41.559Z,3.55
2019-05-16T00:53:09.104Z,2.83
2019-05-16T00:55:35.983Z,2.90
2019-05-16T00:58:02.823Z,3.22
2019-05-16T01:00:45.080Z,2.67
2019-05-16T01:03:11.889Z,2.60
2019-05-16T01:05:38.889Z,3.40
2019-05-16T01:08:07.750Z,2.80
2019-05-16T01:10:33.491Z,2.20
2019-05-16T01:12:59.752Z,2.25
2019-05-16T01:15:26.119Z,4.22
2019-05-16T01:17:52.361Z,3.22
2019-05-16T01:20:19.488Z,3.85
2019-05-16T01:22:45.869Z,3.00
2019-05-16T01:25:12.306Z,2.87
2019-05-16T01:27:38.851Z,2.70
2019-05-16T01:30:08.856Z,4.17
2019-05-16T01:32:34.814Z,2.67
2019-05-16T01:35:01.498Z,2.70
2019-05-16T01:37:27.942Z,1.92
2019-05-16T01:39:54.287Z,1.00
2019-05-16T01:42:20.566Z,2.15
2019-05-16T01:44:48.752Z,2.05
2019-05-16T01:47:14.975Z,2.50
2019-05-16T01:49:41.244Z,2.05
2019-05-16T01:52:08.446Z,1.42
2019-05-16T01:54:35.070Z,2.08
2019-05-16T01:57:01.439Z,2.67
2019-05-16T01:59:28.422Z,3.22
2019-05-16T02:01:54.790Z,2.10
2019-05-16T02:04:21.033Z,2.50
2019-05-16T02:06:54.229Z,3.35
2019-05-16T02:09:15.559Z,2.02
2019-05-16T02:11:41.906Z,2.58
2019-05-16T02:14:09.532Z,2.85
2019-05-16T02:16:38.335Z,2.33
2019-05-16T02:19:04.280Z,3.47
2019-05-16T02:21:30.701Z,1.95
2019-05-16T02:23:58.545Z,3.22
2019-05-16T02:26:25.027Z,2.00
2019-05-16T02:28:51.327Z,2.37
2019-05-16T02:31:17.730Z,2.83
2019-05-16T02:33:43.994Z,2.50
2019-05-16T02:36:11.050Z,2.75
2019-05-16T02:38:37.603Z,2.55
2019-05-16T02:41:04.021Z,1.60
2019-05-16T02:43:31.265Z,3.70
2019-05-16T02:46:01.022Z,3.72
2019-05-16T02:48:26.287Z,2.92
2019-05-16T02:50:52.549Z,2.27
2019-05-16T02:53:22.473Z,2.30
2019-05-16T02:55:47.968Z,1.87
2019-05-16T02:58:14.285Z,1.47
2019-05-16T03:00:42.514Z,3.55
2019-05-16T03:03:11.954Z,1.75
2019-05-16T03:05:37.178Z,1.67
2019-05-16T03:08:03.706Z,1.77
2019-05-16T03:10:31.218Z,1.37
2019-05-16T03:13:00.565Z,3.37
2019-05-16T03:15:26.566Z,1.85
2019-05-16T03:17:58.999Z,2.50
2019-05-16T03:20:26.719Z,3.50
2019-05-16T03:22:53.513Z,1.47
2019-05-16T03:25:22.155Z,1.95
2019-05-16T03:27:47.844Z,2.45
2019-05-16T03:30:16.247Z,2.77
2019-05-16T03:32:45.264Z,1.57
2019-05-16T03:35:15.344Z,3.25
2019-05-16T03:37:51.496Z,2.60
2019-05-16T03:40:06.618Z,4.62
2019-05-16T03:42:33.234Z,1.95
2019-05-16T03:45:02.227Z,1.35
2019-05-16T03:47:31.050Z,2.70
2019-05-16T03:49:55.730Z,1.85
2019-05-16T03:52:21.974Z,1.47
2019-05-16T03:54:50.678Z,2.42
2019-05-16T03:57:16.590Z,2.42
2019-05-16T03:59:43.012Z,2.02
2019-05-16T04:02:10.806Z,2.72
2019-05-16T04:04:37.286Z,2.10
2019-05-16T04:07:03.640Z,2.98
2019-05-16T04:09:31.493Z,2.00
2019-05-16T04:12:01.546Z,2.33
2019-05-16T04:14:26.689Z,1.40
2019-05-16T04:16:52.916Z,1.55
2019-05-16T04:19:21.102Z,1.60
2019-05-16T04:21:50.843Z,2.35
2019-05-16T04:24:15.510Z,3.08
2019-05-16T04:26:41.948Z,2.50
2019-05-16T04:29:11.500Z,2.67
2019-05-16T04:31:36.378Z,1.67
2019-05-16T04:34:02.964Z,2.37
2019-05-16T04:36:32.065Z,2.72
2019-05-16T04:38:57.389Z,1.20
2019-05-16T04:41:23.600Z,2.47
2019-05-16T04:43:50.737Z,3.62
2019-05-16T04:46:20.911Z,1.67
2019-05-16T04:48:45.566Z,3.27
2019-05-16T04:51:11.837Z,3.12
2019-05-16T04:53:38.101Z,2.08
2019-05-16T04:56:04.354Z,2.80
2019-05-16T04:58:31.667Z,3.00
2019-05-16T05:01:01.271Z,2.52
2019-05-16T05:03:26.553Z,1.55
2019-05-16T05:05:52.934Z,2.25
2019-05-16T05:08:21.815Z,2.30
2019-05-16T05:10:47.381Z,1.70
2019-05-16T05:13:13.632Z,2.25
2019-05-16T05:15:40.454Z,1.80
2019-05-16T05:18:06.945Z,3.22
2019-05-16T05:20:33.358Z,2.45
2019-05-16T05:23:00.430Z,2.62
2019-05-16T05:25:26.806Z,2.05
2019-05-16T05:27:53.085Z,2.50
2019-05-16T05:30:19.885Z,2.83
2019-05-16T05:32:46.236Z,2.20
2019-05-16T05:35:12.784Z,3.17
2019-05-16T05:37:41.056Z,2.90
2019-05-16T05:40:07.599Z,2.42
2019-05-16T05:42:33.926Z,3.67
2019-05-16T05:45:00.454Z,3.05
2019-05-16T05:47:26.696Z,3.22
2019-05-16T05:49:52.947Z,1.50
2019-05-16T05:52:20.864Z,1.90
2019-05-16T05:54:47.313Z,2.12
2019-05-16T05:57:13.605Z,1.62
2019-05-16T05:59:40.414Z,2.98
2019-05-16T06:02:06.898Z,2.92
2019-05-16T06:04:33.343Z,2.17
2019-05-16T06:07:01.205Z,3.75
2019-05-16T06:09:32.563Z,1.45
2019-05-16T06:11:56.914Z,3.02
2019-05-16T06:14:23.219Z,3.47
2019-05-16T06:16:50.837Z,3.35
2019-05-16T06:19:17.582Z,2.98
2019-05-16T06:21:45.365Z,4.65
2019-05-16T06:24:11.752Z,2.75
2019-05-16T06:26:39.769Z,2.42
2019-05-16T06:29:06.436Z,2.77
2019-05-16T06:31:32.884Z,3.30
2019-05-16T06:34:06.922Z,2.65
2019-05-16T06:36:27.744Z,3.33
2019-05-16T06:38:54.049Z,2.90
2019-05-16T06:41:20.335Z,2.92
2019-05-16T06:43:46.940Z,1.72
2019-05-16T06:46:13.250Z,3.08
2019-05-16T06:48:39.974Z,1.77
2019-05-16T06:51:06.388Z,2.67
2019-05-16T06:53:32.970Z,3.05
2019-05-16T06:56:00.100Z,2.77
2019-05-16T06:58:26.634Z,2.50
2019-05-16T07:00:52.987Z,3.10
2019-05-16T07:03:20.375Z,2.47
2019-05-16T07:05:47.357Z,2.30
2019-05-16T07:08:16.008Z,3.52
2019-05-16T07:10:42.394Z,1.87
2019-05-16T07:13:10.406Z,2.80
2019-05-16T07:15:36.967Z,1.77
2019-05-16T07:18:03.526Z,2.58
2019-05-16T07:20:30.193Z,2.58
2019-05-16T07:22:56.686Z,3.30
2019-05-16T07:25:23.144Z,3.10
2019-05-16T07:27:50.959Z,2.77
2019-05-16T07:30:19.926Z,2.98
2019-05-16T07:32:46.346Z,2.83
2019-05-16T07:35:13.302Z,3.92
2019-05-16T07:37:40.092Z,1.62
2019-05-16T07:40:19.427Z,2.83
2019-05-16T07:42:35.740Z,4.40
2019-05-16T07:45:04.566Z,3.35
2019-05-16T07:47:31.056Z,1.62
2019-05-16T07:49:59.463Z,2.35
2019-05-16T07:52:25.790Z,2.45
2019-05-16T07:54:52.235Z,2.90
2019-05-16T07:57:22.132Z,3.08
2019-05-16T07:59:47.026Z,2.20
2019-05-16T08:02:13.520Z,2.33
2019-05-16T08:04:40.602Z,2.58
2019-05-16T08:07:06.942Z,4.12
2019-05-16T08:09:33.461Z,2.20
2019-05-16T08:12:01.851Z,3.80
2019-05-16T08:14:30.289Z,2.95
2019-05-16T08:16:56.477Z,2.83
2019-05-16T08:19:25.315Z,1.95
2019-05-16T08:21:51.109Z,2.10
2019-05-16T08:24:20.309Z,2.90
2019-05-16T08:26:45.835Z,1.67
2019-05-16T08:29:13.491Z,4.00
2019-05-16T08:31:43.043Z,4.33
2019-05-16T08:34:11.707Z,2.35
2019-05-16T08:36:37.007Z,2.25
2019-05-16T08:39:06.030Z,3.95
2019-05-16T08:41:32.360Z,2.50
2019-05-16T08:44:01.149Z,3.20
2019-05-16T08:46:27.008Z,4.65
2019-05-16T08:50:05.530Z,6.22
2019-05-16T08:51:22.227Z,3.15
2019-05-16T08:53:50.464Z,3.85
2019-05-16T08:56:17.192Z,3.52
2019-05-16T08:58:43.708Z,2.98
2019-05-16T09:01:14.747Z,5.80
2019-05-16T09:03:41.579Z,3.00
2019-05-16T09:06:07.164Z,3.58
2019-05-16T09:08:33.574Z,2.65
2019-05-16T09:11:04.842Z,2.62
2019-05-16T09:13:28.325Z,4.28
2019-05-16T09:15:57.097Z,3.58
2019-05-16T09:18:22.859Z,2.92
2019-05-16T09:20:50.285Z,3.72
2019-05-16T09:23:18.013Z,4.33
2019-05-16T09:25:44.745Z,4.78
2019-05-16T09:28:11.256Z,4.60
2019-05-16T09:30:37.618Z,3.92
2019-05-16T09:33:03.825Z,3.83
2019-05-16T09:35:30.458Z,4.37
2019-05-16T09:37:57.598Z,4.42
2019-05-16T09:40:24.009Z,4.58
2019-05-16T09:42:50.387Z,4.72
2019-05-16T09:45:17.405Z,5.22
2019-05-16T09:47:43.752Z,3.72
2019-05-16T09:50:12.315Z,3.33
2019-05-16T09:52:38.935Z,4.95
2019-05-16T09:55:07.638Z,4.47
2019-05-16T09:57:34.023Z,3.25
2019-05-16T10:00:00.643Z,4.65
2019-05-16T10:02:27.546Z,3.22
2019-05-16T10:04:53.835Z,4.60
2019-05-16T10:07:20.091Z,5.25
2019-05-16T10:09:50.031Z,5.20
2019-05-16T10:12:16.347Z,6.15
2019-05-16T10:14:43.244Z,4.25
2019-05-16T10:17:13.824Z,4.90
2019-05-16T10:19:40.111Z,5.15
2019-05-16T10:22:07.365Z,4.25
2019-05-16T10:24:53.857Z,4.58
2019-05-16T10:27:20.483Z,7.60
2019-05-16T10:29:48.411Z,19.25
2019-05-16T10:32:16.714Z,5.30
2019-05-16T10:34:43.260Z,3.55
2019-05-16T10:37:09.732Z,2.75
2019-05-16T10:39:37.408Z,4.00
2019-05-16T10:42:06.644Z,3.77
2019-05-16T10:44:32.110Z,5.75
2019-05-16T10:46:58.519Z,5.78
2019-05-16T10:49:36.503Z,5.28
2019-05-16T10:51:53.015Z,3.55
2019-05-16T10:54:19.708Z,4.10
2019-05-16T10:56:46.756Z,6.30
2019-05-16T10:59:53.210Z,3.72
2019-05-16T11:01:41.358Z,5.75
2019-05-16T11:04:07.685Z,4.80
2019-05-16T11:06:33.996Z,5.08
2019-05-16T11:09:00.317Z,5.53
2019-05-16T11:11:27.275Z,3.87
2019-05-16T11:13:54.022Z,4.58
2019-05-16T11:16:20.290Z,8.90
2019-05-16T11:18:46.720Z,7.62
2019-05-16T11:21:13.290Z,4.80
2019-05-16T11:23:39.657Z,5.85
2019-05-16T11:26:06.141Z,3.58
2019-05-16T11:28:32.707Z,4.55
2019-05-16T11:31:03.207Z,6.12
2019-05-16T11:33:28.253Z,5.17
2019-05-16T11:35:54.879Z,8.85
2019-05-16T11:38:21.136Z,6.10
2019-05-16T11:40:52.072Z,6.30
2019-05-16T11:43:21.690Z,6.97
2019-05-16T11:45:46.954Z,5.78
2019-05-16T11:48:13.350Z,7.33
2019-05-16T11:50:39.853Z,7.05
2019-05-16T11:53:07.272Z,6.15
2019-05-16T11:55:36.968Z,6.58
2019-05-16T11:58:01.855Z,5.33
2019-05-16T12:00:30.552Z,6.75
2019-05-16T12:02:56.709Z,4.62
2019-05-16T12:05:23.040Z,4.25
2019-05-16T12:07:49.320Z,5.25
2019-05-16T12:10:16.507Z,5.30
2019-05-16T12:12:42.833Z,5.40
2019-05-16T12:15:09.518Z,7.60
2019-05-16T12:17:35.938Z,6.90
2019-05-16T12:20:03.996Z,6.37
2019-05-16T12:22:30.387Z,8.08
2019-05-16T12:25:16.921Z,7.67
2019-05-16T12:27:43.187Z,4.10
2019-05-16T12:30:13.604Z,6.78
2019-05-16T12:32:38.024Z,8.18
2019-05-16T12:35:06.523Z,7.15
2019-05-16T12:37:33.103Z,6.20
2019-05-16T12:39:59.569Z,6.40
2019-05-16T12:42:27.048Z,5.15
2019-05-16T12:44:56.209Z,7.05
2019-05-16T12:47:22.106Z,5.95
2019-05-16T12:49:48.489Z,7.30
2019-05-16T12:52:14.958Z,6.95
2019-05-16T12:54:41.221Z,6.80
2019-05-16T12:57:07.382Z,6.28
2019-05-16T12:59:33.861Z,5.45
2019-05-16T13:02:00.243Z,7.47
2019-05-16T13:04:27.983Z,6.53
2019-05-16T13:06:54.556Z,6.30
2019-05-16T13:09:20.828Z,9.35
2019-05-16T13:11:50.248Z,7.97
2019-05-16T13:14:17.026Z,5.55
2019-05-16T13:16:43.365Z,6.87
2019-05-16T13:19:09.826Z,5.25
2019-05-16T13:21:38.061Z,7.40
2019-05-16T13:24:06.791Z,5.92
2019-05-16T13:26:32.738Z,5.95
2019-05-16T13:28:59.170Z,6.28
2019-05-16T13:31:28.599Z,7.33
2019-05-16T13:33:56.674Z,8.00
2019-05-16T13:36:22.302Z,5.45
2019-05-16T13:38:48.647Z,5.97
2019-05-16T13:41:18.006Z,7.05
2019-05-16T13:43:43.396Z,8.35
2019-05-16T13:46:09.767Z,6.20
2019-05-16T13:48:37.664Z,7.67
2019-05-16T13:51:14.406Z,6.72
2019-05-16T13:53:32.769Z,6.78
2019-05-16T13:55:59.272Z,4.65
2019-05-16T13:58:28.034Z,6.15
2019-05-16T14:00:56.981Z,6.30
2019-05-16T14:03:22.242Z,6.42
2019-05-16T14:05:48.773Z,9.05
2019-05-16T14:08:17.028Z,6.50
2019-05-16T14:10:43.421Z,6.83
2019-05-16T14:13:09.823Z,7.33
2019-05-16T14:15:36.728Z,6.25
2019-05-16T14:18:03.423Z,7.40
2019-05-16T14:20:29.990Z,5.17
2019-05-16T14:22:57.344Z,7.95
2019-05-16T14:25:23.775Z,5.08
2019-05-16T14:27:50.161Z,6.12
2019-05-16T14:30:17.704Z,7.17
2019-05-16T14:32:46.698Z,5.90
2019-05-16T14:35:13.056Z,6.83
2019-05-16T14:37:39.396Z,9.38
2019-05-16T14:40:07.346Z,6.00
2019-05-16T14:42:33.706Z,7.60
2019-05-16T14:45:10.792Z,8.65
2019-05-16T14:47:28.316Z,6.72
2019-05-16T14:49:54.594Z,7.85
2019-05-16T14:52:20.995Z,4.87
2019-05-16T14:54:47.324Z,9.70
2019-05-16T14:57:13.715Z,8.65
2019-05-16T14:59:40.336Z,9.25
2019-05-16T15:02:07.234Z,8.28
2019-05-16T15:04:33.696Z,9.45
2019-05-16T15:06:59.989Z,8.58
2019-05-16T15:09:27.294Z,10.05
2019-05-16T15:11:53.657Z,10.18
2019-05-16T15:14:19.982Z,8.50
2019-05-16T15:16:47.905Z,11.70
2019-05-16T15:19:17.387Z,8.00
2019-05-16T15:21:42.882Z,10.90
2019-05-16T15:24:09.170Z,10.88
2019-05-16T15:26:37.621Z,11.20
2019-05-16T15:29:03.809Z,8.03
2019-05-16T15:31:30.798Z,10.50
2019-05-16T15:33:57.331Z,10.13
2019-05-16T15:36:23.956Z,9.98
2019-05-16T15:38:50.374Z,11.38
2019-05-16T15:41:17.586Z,12.03
2019-05-16T15:43:44.171Z,10.88
2019-05-16T15:46:10.562Z,10.45
2019-05-16T15:48:37.219Z,12.60
2019-05-16T15:51:03.718Z,11.60
2019-05-16T15:53:30.607Z,10.90
2019-05-16T15:55:57.788Z,10.98
2019-05-16T15:58:27.955Z,10.63
2019-05-16T16:00:57.922Z,8.33
2019-05-16T16:03:23.788Z,9.20
2019-05-16T16:05:50.599Z,10.48
2019-05-16T16:08:18.158Z,11.03
2019-05-16T16:10:47.719Z,11.25
2019-05-16T16:13:13.199Z,9.45
2019-05-16T16:15:50.613Z,11.73
2019-05-16T16:18:08.829Z,11.08
2019-05-16T16:20:35.713Z,12.13
2019-05-16T16:23:02.794Z,13.35
2019-05-16T16:25:29.316Z,13.90
2019-05-16T16:27:57.275Z,15.23
2019-05-16T16:30:23.905Z,10.98
2019-05-16T16:32:50.175Z,12.05
2019-05-16T16:35:17.335Z,12.37
2019-05-16T16:37:43.902Z,12.00
2019-05-16T16:40:12.099Z,13.65
2019-05-16T16:42:38.599Z,9.55
2019-05-16T16:45:07.284Z,11.65
2019-05-16T16:47:33.836Z,18.17
2019-05-16T16:50:00.200Z,10.85
2019-05-16T16:52:27.377Z,13.40
2019-05-16T16:54:53.691Z,20.12
2019-05-16T16:57:19.937Z,13.22
2019-05-16T16:59:47.646Z,12.73
2019-05-16T17:02:16.986Z,10.60
2019-05-16T17:04:42.435Z,13.13
2019-05-16T17:07:09.062Z,12.63
2019-05-16T17:09:37.378Z,11.68
2019-05-16T17:12:06.524Z,12.78
2019-05-16T17:14:31.956Z,14.50
2019-05-16T17:16:58.274Z,13.20
2019-05-16T17:19:24.586Z,10.28
2019-05-16T17:22:03.335Z,12.93
2019-05-16T17:24:18.970Z,12.37
2019-05-16T17:26:47.578Z,13.93
2019-05-16T17:29:13.444Z,14.38
2019-05-16T17:31:40.041Z,16.70
2019-05-16T17:34:08.340Z,15.78
2019-05-16T17:36:34.588Z,14.58
2019-05-16T17:39:00.872Z,14.23
2019-05-16T17:41:27.391Z,12.03
2019-05-16T17:43:53.715Z,18.40
2019-05-16T17:46:32.742Z,17.52
2019-05-16T17:48:48.353Z,9.45
2019-05-16T17:51:16.716Z,15.35
2019-05-16T17:53:42.927Z,13.78
2019-05-16T17:56:09.151Z,14.75
2019-05-16T17:58:35.505Z,14.83
2019-05-16T18:01:01.819Z,17.27
2019-05-16T18:03:28.140Z,18.35
2019-05-16T18:05:56.596Z,17.67
2019-05-16T18:08:22.982Z,13.98
2019-05-16T18:10:49.371Z,14.65
2019-05-16T18:13:15.642Z,15.83
2019-05-16T18:15:42.127Z,13.45
2019-05-16T18:18:08.387Z,13.10
2019-05-16T18:20:36.993Z,26.15
2019-05-16T18:23:03.028Z,12.95
2019-05-16T18:25:29.403Z,16.25
2019-05-16T18:27:55.950Z,14.40
2019-05-16T18:30:23.107Z,11.90
2019-05-16T18:32:50.007Z,15.28
2019-05-16T18:35:16.864Z,13.62
2019-05-16T18:37:43.332Z,14.70
2019-05-16T18:40:10.084Z,14.73
2019-05-16T18:42:37.068Z,13.83
2019-05-16T18:45:07.407Z,11.55
2019-05-16T18:47:33.718Z,12.58
2019-05-16T18:50:00.454Z,14.33
2019-05-16T18:52:26.892Z,12.88
2019-05-16T18:54:53.398Z,16.67
2019-05-16T18:57:19.965Z,12.65
2019-05-16T18:59:46.344Z,17.07
2019-05-16T19:02:12.795Z,13.08
2019-05-16T19:04:39.289Z,11.15
2019-05-16T19:07:07.856Z,10.50
2019-05-16T19:09:33.951Z,11.60
2019-05-16T19:12:00.353Z,17.98
2019-05-16T19:14:27.150Z,16.57
2019-05-16T19:16:53.782Z,11.55
2019-05-16T19:19:20.224Z,14.60
2019-05-16T19:21:46.591Z,16.02
2019-05-16T19:24:13.334Z,16.52
2019-05-16T19:26:40.354Z,11.80
2019-05-16T19:29:06.876Z,11.75
2019-05-16T19:31:33.415Z,16.80
2019-05-16T19:34:00.768Z,12.93
2019-05-16T19:36:27.220Z,14.78
2019-05-16T19:38:53.639Z,11.05
2019-05-16T19:41:20.204Z,20.70
2019-05-16T19:43:46.717Z,12.18
2019-05-16T19:46:13.305Z,12.50
2019-05-16T19:48:40.006Z,11.50
2019-05-16T19:51:07.495Z,11.25
2019-05-16T19:53:36.350Z,10.32
2019-05-16T19:56:02.477Z,13.38
2019-05-16T19:58:31.087Z,10.30
2019-05-16T20:00:57.446Z,9.45
2019-05-16T20:03:23.873Z,6.92
2019-05-16T20:05:50.153Z,8.95
2019-05-16T20:08:17.498Z,10.88
2019-05-16T20:10:44.114Z,7.87
2019-05-16T20:13:10.512Z,11.78
2019-05-16T20:15:36.948Z,11.45
2019-05-16T20:18:03.260Z,9.70
2019-05-16T20:20:29.618Z,8.58
2019-05-16T20:22:56.703Z,12.33
2019-05-16T20:25:22.922Z,12.05
2019-05-16T20:27:49.253Z,12.75
2019-05-16T20:30:17.058Z,10.90
2019-05-16T20:32:43.709Z,12.65
2019-05-16T20:35:10.395Z,11.45
2019-05-16T20:37:36.819Z,11.88
2019-05-16T20:40:08.496Z,11.38
2019-05-16T20:42:32.408Z,13.90
2019-05-16T20:44:58.697Z,13.28
2019-05-16T20:47:27.135Z,15.72
2019-05-16T20:49:53.355Z,12.33
2019-05-16T20:52:19.634Z,11.55
2019-05-16T20:54:46.595Z,12.63
2019-05-16T20:57:14.130Z,14.05
2019-05-16T20:59:40.410Z,15.53
2019-05-16T21:02:07.048Z,17.40
2019-05-16T21:04:33.388Z,15.43
2019-05-16T21:07:07.046Z,14.20
2019-05-16T21:09:27.780Z,12.25
2019-05-16T21:11:56.780Z,14.63
2019-05-16T21:14:22.155Z,18.25
2019-05-16T21:16:49.585Z,11.88
2019-05-16T21:19:16.378Z,12.73
2019-05-16T21:21:42.780Z,14.10
2019-05-16T21:24:09.122Z,10.63
2019-05-16T21:26:36.784Z,15.65
2019-05-16T21:29:03.512Z,13.53
2019-05-16T21:31:29.768Z,13.80
2019-05-16T21:33:56.507Z,8.28
2019-05-16T21:36:22.876Z,16.73
2019-05-16T21:38:49.143Z,14.47
2019-05-16T21:41:16.845Z,14.55
2019-05-16T21:43:43.237Z,11.25
2019-05-16T21:46:09.598Z,12.43
2019-05-16T21:48:37.035Z,12.98
2019-05-16T21:51:03.433Z,14.47
2019-05-16T21:53:30.041Z,12.15
2019-05-16T21:55:56.617Z,13.03
2019-05-16T21:58:23.008Z,8.78
2019-05-16T22:00:53.107Z,15.25
2019-05-16T22:03:19.541Z,13.32
2019-05-16T22:05:46.538Z,10.50
2019-05-16T22:08:13.140Z,12.35
2019-05-16T22:10:39.418Z,14.18
2019-05-16T22:13:07.790Z,12.07
2019-05-16T22:15:34.129Z,13.03
2019-05-16T22:18:00.381Z,10.10
2019-05-16T22:20:27.243Z,11.88
2019-05-16T22:22:53.591Z,11.18
2019-05-16T22:25:20.427Z,11.85
2019-05-16T22:27:48.815Z,14.63
2019-05-16T22:30:16.655Z,10.90
2019-05-16T22:32:43.115Z,14.73
2019-05-16T22:35:09.984Z,10.30
2019-05-16T22:37:49.264Z,12.68
2019-05-16T22:40:06.637Z,17.73
2019-05-16T22:42:32.675Z,12.45
2019-05-16T22:44:59.142Z,10.75
2019-05-16T22:47:26.603Z,15.35
2019-05-16T22:49:53.148Z,14.38
2019-05-16T22:52:19.566Z,13.05
2019-05-16T22:54:47.565Z,14.75
2019-05-16T22:57:13.979Z,19.20
2019-05-16T22:59:40.418Z,13.15
2019-05-16T23:02:11.352Z,11.70
2019-05-16T23:04:36.715Z,14.38
2019-05-16T23:07:03.234Z,14.75
2019-05-16T23:09:29.505Z,14.63
2019-05-16T23:11:56.360Z,17.15
2019-05-16T23:14:22.714Z,12.75
2019-05-16T23:16:48.990Z,15.93
2019-05-16T23:19:17.180Z,12.45
2019-05-16T23:21:43.336Z,12.65
2019-05-16T23:24:09.636Z,16.02
2019-05-16T23:26:36.391Z,14.10
2019-05-16T23:29:02.937Z,12.78
2019-05-16T23:31:29.232Z,11.90
2019-05-16T23:33:56.476Z,14.98
2019-05-16T23:36:22.839Z,17.45
2019-05-16T23:38:49.112Z,13.53
2019-05-16T23:41:17.238Z,12.20
2019-05-16T23:43:43.783Z,12.88
2019-05-16T23:46:10.211Z,14.58
2019-05-16T23:48:36.702Z,16.35
2019-05-16T23:51:03.076Z,18.62
2019-05-16T23:53:29.423Z,15.00
2019-05-16T23:55:56.732Z,15.85
2019-05-16T23:58:23.235Z,13.15
